createdAt,value
2023-01-01T00:00:51.328Z,99.63
2023-01-01T00:03:19.709Z,97.67
2023-01-01T00:05:47.877Z,95.70
2023-01-01T00:08:15.881Z,89.32
2023-01-01T00:10:44.082Z,80.70
2023-01-01T00:13:14.633Z,75.22
2023-01-01T00:15:43.094Z,71.03
2023-01-01T00:18:11.159Z,65.25
2023-01-01T00:20:39.394Z,60.25
2023-01-01T00:23:07.370Z,56.20
2023-01-01T00:25:35.375Z,53.33
2023-01-01T00:28:03.740Z,50.17
2023-01-01T00:30:32.019Z,46.45
2023-01-01T00:33:00.278Z,42.55
2023-01-01T00:35:28.655Z,37.17
2023-01-01T00:37:56.710Z,34.78
2023-01-01T00:40:24.989Z,33.83
2023-01-01T00:42:53.285Z,31.58
2023-01-01T00:45:22.896Z,28.75
2023-01-01T00:47:53.181Z,27.95
2023-01-01T00:50:22.746Z,26.85
2023-01-01T00:52:51.196Z,23.77
2023-01-01T00:55:19.314Z,21.63
2023-01-01T00:57:49.047Z,20.58
2023-01-01T01:00:18.070Z,20.20
2023-01-01T01:02:46.384Z,17.92
2023-01-01T01:05:14.696Z,16.67
2023-01-01T01:07:43.106Z,17.27
2023-01-01T01:10:12.547Z,16.80
2023-01-01T01:12:40.989Z,14.75
2023-01-01T01:15:10.532Z,12.70
2023-01-01T01:17:38.511Z,11.90
2023-01-01T01:20:07.691Z,11.68
2023-01-01T01:22:35.834Z,10.38
2023-01-01T01:25:05.279Z,9.15
2023-01-01T01:27:33.493Z,8.85
2023-01-01T01:30:01.766Z,9.33
2023-01-01T01:32:29.877Z,8.50
2023-01-01T01:34:58.030Z,8.88
2023-01-01T01:37:25.939Z,8.55
2023-01-01T01:39:54.385Z,9.20
2023-01-01T01:42:23.787Z,8.57
2023-01-01T01:45:03.255Z,8.32
2023-01-01T01:47:40.460Z,8.90
2023-01-01T01:50:38.468Z,8.27
2023-01-01T01:53:15.269Z,9.00
2023-01-01T01:55:50.392Z,11.33
2023-01-01T01:58:20.099Z,12.23
2023-01-01T02:00:49.298Z,10.13
2023-01-01T02:03:30.034Z,9.95
2023-01-01T02:05:59.259Z,9.07
2023-01-01T02:08:27.710Z,8.20
2023-01-01T02:10:56.251Z,8.18
2023-01-01T02:13:24.603Z,8.10
2023-01-01T02:15:57.944Z,8.68
2023-01-01T02:18:45.184Z,8.30
2023-01-01T02:21:20.472Z,8.40
2023-01-01T02:24:15.329Z,8.35
2023-01-01T02:26:50.727Z,9.32
2023-01-01T02:29:35.457Z,9.10
2023-01-01T02:32:32.049Z,9.27
2023-01-01T02:35:36.071Z,9.33
2023-01-01T02:38:15.512Z,9.23
2023-01-01T02:41:06.813Z,9.57
2023-01-01T02:43:35.667Z,9.10
2023-01-01T02:46:08.674Z,9.43
2023-01-01T02:48:52.669Z,9.10
2023-01-01T02:51:47.603Z,10.18
2023-01-01T02:54:18.668Z,9.63
2023-01-01T02:57:05.800Z,9.18
2023-01-01T03:00:19.245Z,10.35
2023-01-01T03:03:11.451Z,9.07
2023-01-01T03:06:21.186Z,8.77
2023-01-01T03:08:59.368Z,7.70
2023-01-01T03:11:46.795Z,7.45
2023-01-01T03:14:51.947Z,6.88
2023-01-01T03:17:51.718Z,6.70
2023-01-01T03:20:25.009Z,6.78
2023-01-01T03:22:58.573Z,6.22
2023-01-01T03:25:33.012Z,5.50
2023-01-01T03:28:06.538Z,5.55
2023-01-01T03:30:40.145Z,5.77
2023-01-01T03:33:16.582Z,5.30
2023-01-01T03:35:50.031Z,5.45
2023-01-01T03:38:36.846Z,5.30
2023-01-01T03:41:24.373Z,5.25
2023-01-01T03:44:00.683Z,4.93
2023-01-01T03:46:33.843Z,4.80
2023-01-01T03:49:04.590Z,5.20
2023-01-01T03:51:47.725Z,5.10
2023-01-01T03:54:21.852Z,5.25
2023-01-01T03:57:17.874Z,5.10
2023-01-01T04:00:03.558Z,5.05
2023-01-01T04:02:55.470Z,5.70
2023-01-01T04:05:25.831Z,4.90
2023-01-01T04:07:55.175Z,5.15
2023-01-01T04:10:24.862Z,5.20
2023-01-01T04:12:56.801Z,5.18
2023-01-01T04:15:28.958Z,4.82
2023-01-01T04:17:57.391Z,5.07
2023-01-01T04:20:26.478Z,5.32
2023-01-01T04:22:59.500Z,5.70
2023-01-01T04:25:28.383Z,5.20
2023-01-01T04:27:59.213Z,5.30
2023-01-01T04:30:28.901Z,5.05
2023-01-01T04:32:57.022Z,5.10
2023-01-01T04:35:25.067Z,4.80
2023-01-01T04:37:53.532Z,5.00
2023-01-01T04:40:21.856Z,4.90
2023-01-01T04:42:49.840Z,5.28
2023-01-01T04:45:18.909Z,5.47
2023-01-01T04:47:49.795Z,5.37
2023-01-01T04:50:18.793Z,5.10
2023-01-01T04:52:51.829Z,6.03
2023-01-01T04:55:21.262Z,5.18
2023-01-01T04:57:50.730Z,4.85
2023-01-01T05:00:19.797Z,4.97
2023-01-01T05:02:47.766Z,5.05
2023-01-01T05:05:16.057Z,4.88
2023-01-01T05:07:44.824Z,5.03
2023-01-01T05:10:13.094Z,4.93
2023-01-01T05:12:43.304Z,5.10
2023-01-01T05:15:12.019Z,5.57
2023-01-01T05:17:39.881Z,4.93
2023-01-01T05:20:08.954Z,4.90
2023-01-01T05:22:37.449Z,4.90
2023-01-01T05:25:06.401Z,4.70
2023-01-01T05:27:37.891Z,4.60
2023-01-01T05:30:06.809Z,5.00
2023-01-01T05:32:34.628Z,4.85
2023-01-01T05:35:02.918Z,4.93
2023-01-01T05:37:34.097Z,5.10
2023-01-01T05:40:02.608Z,5.30
2023-01-01T05:42:30.867Z,5.10
2023-01-01T05:45:00.038Z,5.40
2023-01-01T05:47:30.008Z,5.32
2023-01-01T05:49:58.845Z,5.07
2023-01-01T05:52:27.241Z,5.28
2023-01-01T05:54:55.791Z,5.43
2023-01-01T05:57:25.487Z,6.55
2023-01-01T05:59:53.856Z,5.10
2023-01-01T06:02:22.446Z,5.00
2023-01-01T06:04:50.729Z,5.20
2023-01-01T06:07:19.009Z,5.30
2023-01-01T06:09:47.080Z,5.05
2023-01-01T06:12:15.129Z,5.05
2023-01-01T06:14:43.557Z,4.67
2023-01-01T06:17:11.560Z,4.82
2023-01-01T06:19:39.942Z,4.20
2023-01-01T06:22:08.595Z,4.40
2023-01-01T06:24:39.105Z,4.03
2023-01-01T06:27:07.679Z,4.10
2023-01-01T06:29:35.719Z,4.28
2023-01-01T06:32:04.077Z,4.25
2023-01-01T06:34:32.175Z,4.15
2023-01-01T06:37:06.548Z,4.70
2023-01-01T06:39:35.348Z,4.33
2023-01-01T06:42:03.747Z,4.97
2023-01-01T06:44:31.920Z,4.90
2023-01-01T06:46:59.993Z,4.30
2023-01-01T06:49:28.006Z,4.15
2023-01-01T06:51:56.276Z,3.60
2023-01-01T06:54:24.541Z,3.38
2023-01-01T06:56:55.360Z,3.45
2023-01-01T06:59:23.758Z,3.30
2023-01-01T07:01:51.649Z,3.67
2023-01-01T07:04:19.980Z,3.30
2023-01-01T07:06:48.028Z,3.60
2023-01-01T07:09:16.052Z,3.20
2023-01-01T07:11:44.253Z,3.70
2023-01-01T07:14:12.543Z,3.53
2023-01-01T07:16:40.574Z,3.60
2023-01-01T07:19:08.865Z,3.47
2023-01-01T07:21:44.720Z,3.72
2023-01-01T07:24:15.134Z,3.90
2023-01-01T07:26:43.545Z,3.70
2023-01-01T07:29:13.415Z,3.80
2023-01-01T07:31:44.044Z,4.10
2023-01-01T07:34:19.653Z,3.70
2023-01-01T07:36:48.091Z,3.60
2023-01-01T07:39:15.980Z,3.78
2023-01-01T07:41:43.961Z,3.90
2023-01-01T07:44:14.736Z,3.90
2023-01-01T07:46:43.038Z,4.22
2023-01-01T07:49:10.989Z,4.35
2023-01-01T07:51:39.594Z,4.22
2023-01-01T07:54:07.997Z,4.60
2023-01-01T07:56:36.923Z,3.97
2023-01-01T07:59:05.937Z,4.25
2023-01-01T08:01:37.432Z,4.15
2023-01-01T08:04:06.144Z,4.00
2023-01-01T08:06:38.713Z,4.20
2023-01-01T08:09:08.011Z,4.07
2023-01-01T08:11:35.902Z,4.55
2023-01-01T08:14:04.567Z,4.20
2023-01-01T08:16:32.774Z,4.35
2023-01-01T08:19:01.008Z,4.03
2023-01-01T08:21:28.936Z,4.10
2023-01-01T08:23:57.098Z,4.13
2023-01-01T08:26:33.740Z,4.00
2023-01-01T08:29:05.845Z,4.80
2023-01-01T08:31:34.753Z,4.83
2023-01-01T08:34:02.604Z,4.88
2023-01-01T08:36:30.814Z,4.90
2023-01-01T08:38:58.988Z,4.75
2023-01-01T08:41:27.127Z,4.72
2023-01-01T08:43:55.307Z,4.63
2023-01-01T08:46:23.532Z,4.28
2023-01-01T08:48:51.330Z,4.95
2023-01-01T08:51:19.668Z,4.85
2023-01-01T08:53:51.140Z,5.10
2023-01-01T08:56:20.915Z,5.37
2023-01-01T08:58:49.948Z,5.38
2023-01-01T09:01:22.061Z,5.25
2023-01-01T09:03:50.543Z,5.65
2023-01-01T09:06:18.536Z,6.13
2023-01-01T09:08:46.666Z,5.13
2023-01-01T09:11:26.653Z,5.07
2023-01-01T09:13:55.341Z,5.43
2023-01-01T09:16:23.856Z,5.95
2023-01-01T09:18:52.095Z,5.72
2023-01-01T09:21:20.259Z,5.77
2023-01-01T09:23:48.542Z,6.35
2023-01-01T09:26:16.347Z,6.53
2023-01-01T09:28:44.913Z,6.32
2023-01-01T09:31:12.750Z,7.05
2023-01-01T09:33:41.146Z,7.03
2023-01-01T09:36:27.706Z,7.05
2023-01-01T09:38:56.984Z,7.20
2023-01-01T09:41:54.350Z,7.80
2023-01-01T09:44:36.863Z,8.20
2023-01-01T09:47:11.184Z,8.10
2023-01-01T09:49:43.341Z,8.50
2023-01-01T09:52:15.425Z,8.57
2023-01-01T09:55:10.706Z,8.27
2023-01-01T09:57:39.783Z,8.40
2023-01-01T10:00:17.681Z,7.80
2023-01-01T10:02:58.592Z,7.45
2023-01-01T10:05:49.880Z,7.68
2023-01-01T10:08:39.354Z,7.72
2023-01-01T10:11:30.518Z,7.40
2023-01-01T10:14:01.280Z,7.13
2023-01-01T10:16:43.228Z,7.80
2023-01-01T10:19:14.309Z,8.00
2023-01-01T10:21:47.280Z,7.55
2023-01-01T10:24:16.520Z,8.13
2023-01-01T10:26:44.893Z,7.60
2023-01-01T10:29:19.211Z,7.38
2023-01-01T10:31:47.635Z,7.80
2023-01-01T10:34:26.407Z,7.82
2023-01-01T10:36:57.793Z,6.72
2023-01-01T10:39:27.278Z,7.37
2023-01-01T10:41:57.895Z,7.10
2023-01-01T10:44:35.315Z,6.93
2023-01-01T10:47:23.116Z,7.15
2023-01-01T10:50:08.385Z,6.43
2023-01-01T10:52:41.862Z,6.70
2023-01-01T10:55:27.946Z,6.40
2023-01-01T10:57:56.145Z,7.00
2023-01-01T11:00:28.325Z,7.25
2023-01-01T11:03:19.604Z,7.10
2023-01-01T11:06:28.291Z,7.30
2023-01-01T11:08:59.188Z,7.18
2023-01-01T11:11:44.593Z,7.20
2023-01-01T11:14:27.377Z,6.53
2023-01-01T11:16:57.304Z,17.85
2023-01-01T11:19:33.230Z,7.87
2023-01-01T11:22:01.682Z,6.75
2023-01-01T11:24:31.771Z,6.82
2023-01-01T11:27:25.689Z,6.60
2023-01-01T11:30:38.721Z,7.55
2023-01-01T11:33:06.880Z,7.03
2023-01-01T11:35:48.944Z,7.22
2023-01-01T11:38:29.239Z,7.70
2023-01-01T11:41:08.233Z,7.75
2023-01-01T11:43:41.421Z,7.57
2023-01-01T11:46:14.583Z,7.80
2023-01-01T11:48:44.963Z,8.48
2023-01-01T11:51:30.412Z,8.88
2023-01-01T11:54:34.563Z,8.07
2023-01-01T11:57:16.832Z,8.07
2023-01-01T12:00:02.235Z,7.87
2023-01-01T12:03:25.564Z,8.35
2023-01-01T12:06:09.734Z,8.02
2023-01-01T12:08:43.050Z,7.57
2023-01-01T12:11:15.705Z,7.78
2023-01-01T12:13:56.469Z,7.13
2023-01-01T12:16:53.066Z,7.00
2023-01-01T12:19:26.335Z,7.28
2023-01-01T12:21:59.523Z,7.03
2023-01-01T12:24:34.514Z,7.57
2023-01-01T12:27:35.831Z,6.97
2023-01-01T12:30:25.523Z,8.40
2023-01-01T12:33:27.831Z,7.28
2023-01-01T12:36:29.497Z,7.03
2023-01-01T12:39:29.567Z,6.90
2023-01-01T12:42:03.161Z,7.03
2023-01-01T12:44:52.560Z,7.30
2023-01-01T12:47:58.470Z,7.75
2023-01-01T12:50:55.041Z,6.78
2023-01-01T12:53:59.118Z,7.78
2023-01-01T12:57:09.573Z,7.00
2023-01-01T12:59:42.567Z,8.85
2023-01-01T13:02:24.944Z,8.10
2023-01-01T13:04:57.546Z,7.57
2023-01-01T13:07:36.717Z,8.20
2023-01-01T13:10:30.067Z,7.27
2023-01-01T13:12:58.092Z,7.68
2023-01-01T13:15:41.878Z,7.00
2023-01-01T13:18:15.753Z,6.50
2023-01-01T13:21:03.494Z,6.35
2023-01-01T13:23:35.243Z,5.93
2023-01-01T13:26:18.391Z,6.10
2023-01-01T13:29:00.148Z,6.13
2023-01-01T13:31:40.352Z,6.38
2023-01-01T13:34:46.754Z,6.22
2023-01-01T13:37:28.563Z,6.00
2023-01-01T13:40:01.098Z,6.00
2023-01-01T13:42:54.139Z,5.53
2023-01-01T13:48:49.574Z,5.72
2023-01-01T13:52:05.424Z,5.70
2023-01-01T13:55:02.457Z,5.93
2023-01-01T13:57:48.945Z,6.03
2023-01-01T14:00:46.636Z,5.68
2023-01-01T14:03:19.480Z,5.63
2023-01-01T14:05:54.406Z,5.60
2023-01-01T14:08:41.081Z,5.82
2023-01-01T14:11:25.239Z,6.00
2023-01-01T14:13:53.221Z,5.60
2023-01-01T14:16:21.314Z,5.90
2023-01-01T14:18:53.314Z,6.10
2023-01-01T14:21:23.701Z,5.60
2023-01-01T14:23:59.541Z,5.93
2023-01-01T14:26:30.161Z,5.90
2023-01-01T14:29:00.446Z,5.78
2023-01-01T14:31:31.617Z,6.07
2023-01-01T14:34:00.062Z,6.10
2023-01-01T14:36:32.915Z,6.10
2023-01-01T14:39:01.507Z,6.38
2023-01-01T14:41:40.109Z,7.25
2023-01-01T14:44:15.817Z,6.40
2023-01-01T14:46:52.189Z,7.03
2023-01-01T14:49:31.332Z,5.97
2023-01-01T14:52:04.737Z,6.50
2023-01-01T14:54:37.594Z,6.75
2023-01-01T14:57:12.055Z,5.80
2023-01-01T14:59:55.011Z,6.60
2023-01-01T15:02:30.427Z,6.43
2023-01-01T15:04:59.661Z,6.53
2023-01-01T15:07:32.483Z,6.45
2023-01-01T15:10:03.742Z,5.93
2023-01-01T15:12:34.737Z,5.88
2023-01-01T15:15:03.545Z,6.13
2023-01-01T15:17:47.061Z,6.22
2023-01-01T15:20:22.478Z,7.05
2023-01-01T15:22:52.156Z,6.87
2023-01-01T15:25:21.173Z,6.20
2023-01-01T15:27:55.282Z,6.40
2023-01-01T15:30:36.676Z,6.55
2023-01-01T15:33:16.948Z,7.18
2023-01-01T15:35:49.868Z,7.07
2023-01-01T15:38:23.905Z,7.30
2023-01-01T15:40:53.889Z,7.70
2023-01-01T15:43:25.891Z,7.05
2023-01-01T15:45:59.862Z,7.18
2023-01-01T15:48:38.396Z,7.17
2023-01-01T15:51:16.984Z,7.78
2023-01-01T15:54:00.939Z,8.25
2023-01-01T15:56:32.593Z,8.57
2023-01-01T15:59:09.770Z,9.38
2023-01-01T16:01:40.078Z,9.47
2023-01-01T16:04:28.831Z,8.95
2023-01-01T16:06:58.826Z,10.82
2023-01-01T16:09:26.833Z,9.60
2023-01-01T16:11:57.433Z,9.38
2023-01-01T16:14:26.033Z,9.87
2023-01-01T16:17:01.315Z,9.05
2023-01-01T16:19:32.474Z,9.63
2023-01-01T16:22:00.582Z,8.82
2023-01-01T16:24:29.223Z,9.10
2023-01-01T16:26:57.298Z,9.40
2023-01-01T16:29:25.639Z,10.10
2023-01-01T16:31:53.700Z,10.52
2023-01-01T16:34:21.549Z,9.95
2023-01-01T16:36:49.837Z,9.95
2023-01-01T16:39:17.806Z,9.40
2023-01-01T16:41:46.204Z,10.27
2023-01-01T16:44:15.454Z,9.40
2023-01-01T16:46:46.682Z,9.95
2023-01-01T16:49:15.052Z,10.13
2023-01-01T16:51:44.665Z,9.53
2023-01-01T16:54:16.333Z,10.57
2023-01-01T16:56:44.443Z,11.82
2023-01-01T16:59:12.762Z,10.38
2023-01-01T17:01:40.954Z,10.82
2023-01-01T17:04:10.242Z,10.13
2023-01-01T17:06:41.044Z,10.77
2023-01-01T17:09:09.127Z,10.00
2023-01-01T17:11:39.685Z,10.23
2023-01-01T17:14:07.667Z,11.13
2023-01-01T17:16:39.520Z,10.00
2023-01-01T17:19:17.145Z,10.93
2023-01-01T17:21:47.334Z,11.07
2023-01-01T17:24:17.139Z,10.73
2023-01-01T17:26:45.296Z,10.95
2023-01-01T17:29:13.544Z,11.67
2023-01-01T17:31:42.030Z,12.43
2023-01-01T17:34:14.213Z,11.95
2023-01-01T17:36:44.649Z,12.27
2023-01-01T17:39:14.754Z,12.82
2023-01-01T17:41:45.308Z,13.43
2023-01-01T17:44:13.821Z,14.20
2023-01-01T17:46:44.797Z,15.02
2023-01-01T17:49:12.866Z,14.38
2023-01-01T17:51:41.058Z,14.52
2023-01-01T17:54:13.916Z,14.57
2023-01-01T17:56:42.311Z,15.63
2023-01-01T17:59:10.554Z,17.10
2023-01-01T18:01:38.706Z,17.38
2023-01-01T18:04:08.301Z,17.33
2023-01-01T18:06:42.019Z,16.27
2023-01-01T18:09:12.829Z,17.00
2023-01-01T18:11:41.732Z,16.30
2023-01-01T18:14:10.639Z,15.18
2023-01-01T18:16:40.504Z,15.15
2023-01-01T18:19:08.778Z,15.30
2023-01-01T18:21:36.818Z,14.73
2023-01-01T18:24:11.208Z,13.77
2023-01-01T18:26:39.518Z,14.32
2023-01-01T18:29:07.799Z,14.98
2023-01-01T18:31:36.550Z,15.40
2023-01-01T18:34:05.032Z,14.23
2023-01-01T18:36:35.161Z,14.77
2023-01-01T18:39:15.821Z,15.68
2023-01-01T18:41:49.166Z,17.45
2023-01-01T18:44:24.289Z,16.47
2023-01-01T18:47:16.765Z,14.82
2023-01-01T18:49:51.783Z,14.00
2023-01-01T18:52:28.000Z,14.73
2023-01-01T18:55:18.627Z,15.35
2023-01-01T18:58:01.370Z,14.00
2023-01-01T19:00:32.080Z,14.80
2023-01-01T19:03:10.978Z,15.18
2023-01-01T19:05:39.366Z,15.27
2023-01-01T19:08:10.244Z,14.75
2023-01-01T19:10:44.175Z,14.47
2023-01-01T19:13:25.761Z,14.15
2023-01-01T19:16:24.226Z,14.30
2023-01-01T19:18:54.017Z,14.07
2023-01-01T19:21:25.838Z,15.35
2023-01-01T19:23:59.325Z,14.83
2023-01-01T19:26:33.038Z,15.65
2023-01-01T19:29:04.127Z,15.00
2023-01-01T19:31:35.422Z,14.45
2023-01-01T19:34:04.144Z,14.70
2023-01-01T19:36:32.727Z,12.87
2023-01-01T19:39:01.113Z,14.43
2023-01-01T19:41:29.433Z,13.70
2023-01-01T19:43:57.697Z,14.07
2023-01-01T19:46:25.924Z,13.63
2023-01-01T19:48:54.677Z,14.30
2023-01-01T19:51:23.272Z,14.90
2023-01-01T19:53:52.699Z,14.45
2023-01-01T19:56:22.496Z,14.50
2023-01-01T19:58:50.723Z,14.50
2023-01-01T20:01:18.797Z,15.00
2023-01-01T20:03:55.183Z,14.02
2023-01-01T20:06:26.018Z,14.45
2023-01-01T20:08:55.026Z,14.73
2023-01-01T20:11:23.422Z,14.95
2023-01-01T20:13:51.426Z,14.50
2023-01-01T20:16:19.462Z,14.57
2023-01-01T20:18:49.460Z,14.52
2023-01-01T20:21:36.029Z,14.55
2023-01-01T20:24:04.379Z,14.77
2023-01-01T20:26:32.511Z,14.60
2023-01-01T20:29:19.177Z,13.43
2023-01-01T20:31:56.581Z,14.50
2023-01-01T20:34:24.738Z,15.05
2023-01-01T20:37:10.884Z,14.30
2023-01-01T20:39:39.531Z,13.20
2023-01-01T20:42:07.494Z,12.88
2023-01-01T20:44:36.259Z,12.65
2023-01-01T20:47:04.284Z,12.90
2023-01-01T20:49:32.193Z,13.10
2023-01-01T20:52:00.235Z,12.87
2023-01-01T20:54:28.669Z,12.43
2023-01-01T20:56:56.564Z,12.52
2023-01-01T20:59:35.288Z,12.32
2023-01-01T21:02:10.784Z,12.35
2023-01-01T21:04:40.517Z,14.20
2023-01-01T21:07:10.839Z,13.63
2023-01-01T21:09:40.462Z,13.73
2023-01-01T21:12:09.879Z,13.95
2023-01-01T21:14:37.879Z,14.43
2023-01-01T21:17:24.857Z,14.40
2023-01-01T21:19:56.313Z,13.93
2023-01-01T21:22:28.225Z,14.70
2023-01-01T21:25:16.808Z,14.73
2023-01-01T21:27:46.133Z,13.07
2023-01-01T21:30:14.156Z,12.63
2023-01-01T21:32:44.596Z,12.00
2023-01-01T21:35:32.506Z,11.10
2023-01-01T21:38:02.991Z,10.57
2023-01-01T21:40:53.650Z,11.20
2023-01-01T21:43:36.384Z,10.57
2023-01-01T21:46:38.230Z,10.60
2023-01-01T21:49:24.567Z,11.32
2023-01-01T21:51:58.527Z,10.90
2023-01-01T21:54:37.010Z,11.35
2023-01-01T21:57:37.246Z,11.93
2023-01-01T22:00:24.596Z,11.77
2023-01-01T22:02:53.714Z,11.63
2023-01-01T22:05:42.791Z,12.30
2023-01-01T22:08:29.070Z,12.35
2023-01-01T22:10:58.266Z,12.10
2023-01-01T22:13:28.183Z,11.52
2023-01-01T22:15:56.283Z,11.35
2023-01-01T22:18:31.398Z,10.75
2023-01-01T22:21:02.993Z,10.23
2023-01-01T22:23:42.324Z,10.30
2023-01-01T22:26:16.004Z,9.60
2023-01-01T22:28:45.902Z,9.30
2023-01-01T22:31:27.850Z,8.93
2023-01-01T22:34:00.690Z,9.75
2023-01-01T22:36:35.954Z,8.40
2023-01-01T22:39:16.257Z,8.15
2023-01-01T22:41:46.130Z,8.52
2023-01-01T22:44:16.183Z,8.40
2023-01-01T22:46:44.155Z,7.93
2023-01-01T22:49:24.612Z,8.20
2023-01-01T22:51:56.611Z,8.93
2023-01-01T22:54:25.182Z,9.02
2023-01-01T22:56:52.982Z,9.98
2023-01-01T22:59:21.198Z,9.18
2023-01-01T23:01:49.549Z,9.20
2023-01-01T23:04:17.500Z,9.63
2023-01-01T23:06:45.739Z,9.73
2023-01-01T23:09:13.982Z,9.43
2023-01-01T23:11:42.411Z,9.27
2023-01-01T23:14:29.016Z,9.30
2023-01-01T23:16:57.236Z,8.95
2023-01-01T23:19:25.156Z,9.25
2023-01-01T23:21:53.339Z,8.25
2023-01-01T23:24:24.376Z,8.77
2023-01-01T23:26:54.047Z,9.02
2023-01-01T23:29:23.887Z,9.00
2023-01-01T23:31:52.130Z,8.30
2023-01-01T23:34:20.612Z,8.18
2023-01-01T23:36:49.485Z,8.10
2023-01-01T23:39:17.720Z,8.70
2023-01-01T23:41:45.793Z,8.47
2023-01-01T23:44:13.739Z,8.23
2023-01-01T23:46:44.922Z,8.63
2023-01-01T23:49:14.421Z,8.90
2023-01-01T23:51:42.551Z,8.43
2023-01-01T23:54:10.900Z,8.70
2023-01-01T23:56:40.042Z,8.50
2023-01-01T23:59:08.259Z,8.35
